sensor_id;sensor_type;location;lat;lon;timestamp;P1;durP1;ratioP1;P2;durP2;ratioP2
17024;SDS011;8629;42.496;25.620;2023-11-22T00:00:45;9.20;;;7.27;;
17024;SDS011;8629;42.496;25.620;2023-11-22T00:03:12;7.37;;;5.87;;
17024;SDS011;8629;42.496;25.620;2023-11-22T00:05:39;5.90;;;5.30;;
17024;SDS011;8629;42.496;25.620;2023-11-22T00:08:06;6.93;;;5.50;;
17024;SDS011;8629;42.496;25.620;2023-11-22T00:10:33;7.80;;;6.47;;
17024;SDS011;8629;42.496;25.620;2023-11-22T00:13:00;7.57;;;5.70;;
17024;SDS011;8629;42.496;25.620;2023-11-22T00:15:27;5.67;;;5.03;;
17024;SDS011;8629;42.496;25.620;2023-11-22T00:17:55;6.00;;;5.40;;
17024;SDS011;8629;42.496;25.620;2023-11-22T00:20:22;7.07;;;6.37;;
17024;SDS011;8629;42.496;25.620;2023-11-22T00:22:49;6.87;;;6.10;;
17024;SDS011;8629;42.496;25.620;2023-11-22T00:25:16;7.63;;;6.43;;
17024;SDS011;8629;42.496;25.620;2023-11-22T00:27:44;8.53;;;6.67;;
17024;SDS011;8629;42.496;25.620;2023-11-22T00:30:12;8.50;;;6.23;;
17024;SDS011;8629;42.496;25.620;2023-11-22T00:32:39;7.50;;;6.80;;
17024;SDS011;8629;42.496;25.620;2023-11-22T00:35:08;8.40;;;7.53;;
17024;SDS011;8629;42.496;25.620;2023-11-22T00:37:35;7.93;;;7.13;;
17024;SDS011;8629;42.496;25.620;2023-11-22T00:40:02;11.27;;;8.87;;
17024;SDS011;8629;42.496;25.620;2023-11-22T00:42:35;10.57;;;9.07;;
17024;SDS011;8629;42.496;25.620;2023-11-22T00:45:03;10.57;;;8.77;;
17024;SDS011;8629;42.496;25.620;2023-11-22T00:47:31;10.57;;;9.43;;
17024;SDS011;8629;42.496;25.620;2023-11-22T00:49:58;10.80;;;8.63;;
17024;SDS011;8629;42.496;25.620;2023-11-22T00:52:26;10.60;;;9.43;;
17024;SDS011;8629;42.496;25.620;2023-11-22T00:54:53;12.10;;;8.57;;
17024;SDS011;8629;42.496;25.620;2023-11-22T00:57:19;10.20;;;8.60;;
17024;SDS011;8629;42.496;25.620;2023-11-22T00:59:46;9.60;;;8.37;;
17024;SDS011;8629;42.496;25.620;2023-11-22T01:02:13;10.03;;;8.60;;
17024;SDS011;8629;42.496;25.620;2023-11-22T01:04:40;13.50;;;9.53;;
17024;SDS011;8629;42.496;25.620;2023-11-22T01:07:06;10.57;;;9.60;;
17024;SDS011;8629;42.496;25.620;2023-11-22T01:09:35;10.83;;;9.17;;
17024;SDS011;8629;42.496;25.620;2023-11-22T01:12:02;7.03;;;6.33;;
17024;SDS011;8629;42.496;25.620;2023-11-22T01:14:29;6.70;;;6.20;;
17024;SDS011;8629;42.496;25.620;2023-11-22T01:16:56;7.33;;;6.53;;
17024;SDS011;8629;42.496;25.620;2023-11-22T01:19:23;8.50;;;6.90;;
17024;SDS011;8629;42.496;25.620;2023-11-22T01:21:51;8.83;;;7.93;;
17024;SDS011;8629;42.496;25.620;2023-11-22T01:24:17;8.93;;;7.10;;
17024;SDS011;8629;42.496;25.620;2023-11-22T01:26:46;10.20;;;7.70;;
17024;SDS011;8629;42.496;25.620;2023-11-22T01:29:12;8.37;;;7.67;;
17024;SDS011;8629;42.496;25.620;2023-11-22T01:31:39;9.23;;;8.27;;
17024;SDS011;8629;42.496;25.620;2023-11-22T01:34:07;10.07;;;7.97;;
17024;SDS011;8629;42.496;25.620;2023-11-22T01:36:34;8.70;;;7.50;;
17024;SDS011;8629;42.496;25.620;2023-11-22T01:38:59;10.53;;;8.00;;
17024;SDS011;8629;42.496;25.620;2023-11-22T01:41:28;14.20;;;9.80;;
17024;SDS011;8629;42.496;25.620;2023-11-22T01:43:57;10.57;;;9.53;;
17024;SDS011;8629;42.496;25.620;2023-11-22T01:46:24;11.50;;;9.67;;
17024;SDS011;8629;42.496;25.620;2023-11-22T01:48:51;10.17;;;9.17;;
17024;SDS011;8629;42.496;25.620;2023-11-22T01:51:19;9.50;;;8.47;;
17024;SDS011;8629;42.496;25.620;2023-11-22T01:53:46;10.43;;;8.63;;
17024;SDS011;8629;42.496;25.620;2023-11-22T01:56:14;12.40;;;8.10;;
17024;SDS011;8629;42.496;25.620;2023-11-22T01:58:41;10.00;;;9.00;;
17024;SDS011;8629;42.496;25.620;2023-11-22T02:01:09;9.20;;;8.30;;
17024;SDS011;8629;42.496;25.620;2023-11-22T02:03:37;10.77;;;8.43;;
17024;SDS011;8629;42.496;25.620;2023-11-22T02:06:08;11.13;;;8.80;;
17024;SDS011;8629;42.496;25.620;2023-11-22T02:08:35;10.07;;;8.87;;
17024;SDS011;8629;42.496;25.620;2023-11-22T02:11:04;10.23;;;8.60;;
17024;SDS011;8629;42.496;25.620;2023-11-22T02:13:31;10.07;;;8.43;;
17024;SDS011;8629;42.496;25.620;2023-11-22T02:15:57;11.43;;;9.23;;
17024;SDS011;8629;42.496;25.620;2023-11-22T02:18:28;9.50;;;8.53;;
17024;SDS011;8629;42.496;25.620;2023-11-22T02:20:55;11.87;;;7.80;;
17024;SDS011;8629;42.496;25.620;2023-11-22T02:23:23;7.83;;;7.10;;
17024;SDS011;8629;42.496;25.620;2023-11-22T02:25:51;7.67;;;6.87;;
17024;SDS011;8629;42.496;25.620;2023-11-22T02:28:19;10.00;;;9.00;;
17024;SDS011;8629;42.496;25.620;2023-11-22T02:30:45;9.17;;;8.13;;
17024;SDS011;8629;42.496;25.620;2023-11-22T02:33:12;9.20;;;7.40;;
17024;SDS011;8629;42.496;25.620;2023-11-22T02:35:39;13.30;;;9.67;;
17024;SDS011;8629;42.496;25.620;2023-11-22T02:38:07;9.73;;;8.83;;
17024;SDS011;8629;42.496;25.620;2023-11-22T02:40:35;13.00;;;10.40;;
17024;SDS011;8629;42.496;25.620;2023-11-22T02:43:02;9.47;;;8.40;;
17024;SDS011;8629;42.496;25.620;2023-11-22T02:45:32;10.23;;;9.17;;
17024;SDS011;8629;42.496;25.620;2023-11-22T02:47:59;10.73;;;8.90;;
17024;SDS011;8629;42.496;25.620;2023-11-22T02:50:28;11.27;;;8.47;;
17024;SDS011;8629;42.496;25.620;2023-11-22T02:52:57;9.73;;;8.73;;
17024;SDS011;8629;42.496;25.620;2023-11-22T02:55:24;9.80;;;8.23;;
17024;SDS011;8629;42.496;25.620;2023-11-22T02:57:52;10.30;;;7.93;;
17024;SDS011;8629;42.496;25.620;2023-11-22T03:00:19;8.60;;;7.73;;
17024;SDS011;8629;42.496;25.620;2023-11-22T03:02:46;9.40;;;7.60;;
17024;SDS011;8629;42.496;25.620;2023-11-22T03:05:18;9.70;;;8.73;;
17024;SDS011;8629;42.496;25.620;2023-11-22T03:07:46;10.50;;;8.63;;
17024;SDS011;8629;42.496;25.620;2023-11-22T03:10:12;9.33;;;8.43;;
17024;SDS011;8629;42.496;25.620;2023-11-22T03:12:39;9.17;;;7.53;;
17024;SDS011;8629;42.496;25.620;2023-11-22T03:15:08;8.93;;;7.03;;
17024;SDS011;8629;42.496;25.620;2023-11-22T03:17:36;9.20;;;7.93;;
17024;SDS011;8629;42.496;25.620;2023-11-22T03:20:04;10.83;;;9.63;;
17024;SDS011;8629;42.496;25.620;2023-11-22T03:22:34;12.57;;;10.20;;
17024;SDS011;8629;42.496;25.620;2023-11-22T03:25:02;12.77;;;11.40;;
17024;SDS011;8629;42.496;25.620;2023-11-22T03:27:28;11.93;;;10.00;;
17024;SDS011;8629;42.496;25.620;2023-11-22T03:29:55;14.97;;;8.20;;
17024;SDS011;8629;42.496;25.620;2023-11-22T03:32:23;11.23;;;8.77;;
17024;SDS011;8629;42.496;25.620;2023-11-22T03:34:50;11.50;;;8.37;;
17024;SDS011;8629;42.496;25.620;2023-11-22T03:37:17;12.27;;;9.27;;
17024;SDS011;8629;42.496;25.620;2023-11-22T03:39:44;10.77;;;9.67;;
17024;SDS011;8629;42.496;25.620;2023-11-22T03:42:13;10.60;;;9.50;;
17024;SDS011;8629;42.496;25.620;2023-11-22T03:44:41;12.47;;;10.13;;
17024;SDS011;8629;42.496;25.620;2023-11-22T03:47:09;10.80;;;9.70;;
17024;SDS011;8629;42.496;25.620;2023-11-22T03:49:37;9.67;;;8.67;;
17024;SDS011;8629;42.496;25.620;2023-11-22T03:52:05;9.77;;;8.83;;
17024;SDS011;8629;42.496;25.620;2023-11-22T03:54:33;11.17;;;9.10;;
17024;SDS011;8629;42.496;25.620;2023-11-22T03:57:00;13.67;;;9.70;;
17024;SDS011;8629;42.496;25.620;2023-11-22T03:59:27;12.13;;;9.63;;
17024;SDS011;8629;42.496;25.620;2023-11-22T04:01:54;16.30;;;13.70;;
17024;SDS011;8629;42.496;25.620;2023-11-22T04:04:21;46.20;;;41.53;;
17024;SDS011;8629;42.496;25.620;2023-11-22T04:06:49;26.40;;;23.70;;
17024;SDS011;8629;42.496;25.620;2023-11-22T04:09:17;12.77;;;11.47;;
17024;SDS011;8629;42.496;25.620;2023-11-22T04:11:45;13.63;;;11.43;;
17024;SDS011;8629;42.496;25.620;2023-11-22T04:14:12;12.80;;;11.60;;
17024;SDS011;8629;42.496;25.620;2023-11-22T04:16:39;14.63;;;12.37;;
17024;SDS011;8629;42.496;25.620;2023-11-22T04:19:06;19.43;;;13.77;;
17024;SDS011;8629;42.496;25.620;2023-11-22T04:21:33;21.03;;;13.40;;
17024;SDS011;8629;42.496;25.620;2023-11-22T04:24:01;21.20;;;14.70;;
17024;SDS011;8629;42.496;25.620;2023-11-22T04:26:27;20.23;;;15.10;;
17024;SDS011;8629;42.496;25.620;2023-11-22T04:28:54;17.40;;;12.97;;
17024;SDS011;8629;42.496;25.620;2023-11-22T04:31:21;35.13;;;31.20;;
17024;SDS011;8629;42.496;25.620;2023-11-22T04:33:48;26.70;;;23.90;;
17024;SDS011;8629;42.496;25.620;2023-11-22T04:36:15;14.53;;;12.27;;
17024;SDS011;8629;42.496;25.620;2023-11-22T04:38:42;10.93;;;9.23;;
17024;SDS011;8629;42.496;25.620;2023-11-22T04:41:10;23.20;;;19.70;;
17024;SDS011;8629;42.496;25.620;2023-11-22T04:43:36;18.40;;;16.33;;
17024;SDS011;8629;42.496;25.620;2023-11-22T04:46:07;18.23;;;13.07;;
17024;SDS011;8629;42.496;25.620;2023-11-22T04:48:34;15.00;;;12.03;;
17024;SDS011;8629;42.496;25.620;2023-11-22T04:51:02;17.37;;;13.83;;
17024;SDS011;8629;42.496;25.620;2023-11-22T04:53:30;24.80;;;18.77;;
17024;SDS011;8629;42.496;25.620;2023-11-22T04:55:57;21.03;;;16.93;;
17024;SDS011;8629;42.496;25.620;2023-11-22T04:58:25;19.83;;;16.47;;
17024;SDS011;8629;42.496;25.620;2023-11-22T05:00:52;17.03;;;14.50;;
17024;SDS011;8629;42.496;25.620;2023-11-22T05:03:19;16.90;;;13.63;;
17024;SDS011;8629;42.496;25.620;2023-11-22T05:05:46;17.17;;;14.47;;
17024;SDS011;8629;42.496;25.620;2023-11-22T05:08:13;30.80;;;27.20;;
17024;SDS011;8629;42.496;25.620;2023-11-22T05:10:40;28.37;;;23.57;;
17024;SDS011;8629;42.496;25.620;2023-11-22T05:13:07;21.30;;;17.83;;
17024;SDS011;8629;42.496;25.620;2023-11-22T05:15:35;19.70;;;15.60;;
17024;SDS011;8629;42.496;25.620;2023-11-22T05:18:02;19.03;;;15.57;;
17024;SDS011;8629;42.496;25.620;2023-11-22T05:20:29;18.77;;;14.93;;
17024;SDS011;8629;42.496;25.620;2023-11-22T05:22:58;22.17;;;16.33;;
17024;SDS011;8629;42.496;25.620;2023-11-22T05:25:24;19.43;;;15.10;;
17024;SDS011;8629;42.496;25.620;2023-11-22T05:27:51;28.87;;;20.33;;
17024;SDS011;8629;42.496;25.620;2023-11-22T05:30:18;22.47;;;15.83;;
17024;SDS011;8629;42.496;25.620;2023-11-22T05:32:47;13.60;;;11.20;;
17024;SDS011;8629;42.496;25.620;2023-11-22T05:35:14;13.00;;;11.60;;
17024;SDS011;8629;42.496;25.620;2023-11-22T05:37:41;15.10;;;11.67;;
17024;SDS011;8629;42.496;25.620;2023-11-22T05:40:08;19.97;;;13.50;;
17024;SDS011;8629;42.496;25.620;2023-11-22T05:42:36;18.97;;;14.27;;
17024;SDS011;8629;42.496;25.620;2023-11-22T05:45:03;19.03;;;15.07;;
17024;SDS011;8629;42.496;25.620;2023-11-22T05:47:30;21.40;;;14.63;;
17024;SDS011;8629;42.496;25.620;2023-11-22T05:49:59;14.80;;;11.80;;
17024;SDS011;8629;42.496;25.620;2023-11-22T05:52:25;21.17;;;16.97;;
17024;SDS011;8629;42.496;25.620;2023-11-22T05:54:52;20.87;;;15.93;;
17024;SDS011;8629;42.496;25.620;2023-11-22T05:57:19;18.73;;;15.77;;
17024;SDS011;8629;42.496;25.620;2023-11-22T05:59:46;21.70;;;16.97;;
17024;SDS011;8629;42.496;25.620;2023-11-22T06:02:13;18.13;;;15.50;;
17024;SDS011;8629;42.496;25.620;2023-11-22T06:04:39;19.33;;;14.20;;
17024;SDS011;8629;42.496;25.620;2023-11-22T06:07:08;17.00;;;13.23;;
17024;SDS011;8629;42.496;25.620;2023-11-22T06:09:35;16.53;;;13.17;;
17024;SDS011;8629;42.496;25.620;2023-11-22T06:12:02;17.63;;;12.97;;
17024;SDS011;8629;42.496;25.620;2023-11-22T06:14:30;17.47;;;14.17;;
17024;SDS011;8629;42.496;25.620;2023-11-22T06:16:57;22.53;;;13.40;;
17024;SDS011;8629;42.496;25.620;2023-11-22T06:19:24;14.17;;;11.43;;
17024;SDS011;8629;42.496;25.620;2023-11-22T06:21:51;16.43;;;12.93;;
17024;SDS011;8629;42.496;25.620;2023-11-22T06:24:19;14.33;;;11.23;;
17024;SDS011;8629;42.496;25.620;2023-11-22T06:26:46;14.00;;;10.27;;
17024;SDS011;8629;42.496;25.620;2023-11-22T06:29:15;11.70;;;10.37;;
17024;SDS011;8629;42.496;25.620;2023-11-22T06:31:41;10.77;;;9.77;;
17024;SDS011;8629;42.496;25.620;2023-11-22T06:34:08;11.47;;;10.43;;
17024;SDS011;8629;42.496;25.620;2023-11-22T06:36:35;11.23;;;10.03;;
17024;SDS011;8629;42.496;25.620;2023-11-22T06:39:02;14.90;;;11.93;;
17024;SDS011;8629;42.496;25.620;2023-11-22T06:41:31;11.10;;;10.00;;
17024;SDS011;8629;42.496;25.620;2023-11-22T06:43:58;12.27;;;10.77;;
17024;SDS011;8629;42.496;25.620;2023-11-22T06:46:24;13.20;;;11.73;;
17024;SDS011;8629;42.496;25.620;2023-11-22T06:48:51;12.93;;;11.23;;
17024;SDS011;8629;42.496;25.620;2023-11-22T06:51:21;12.77;;;11.40;;
17024;SDS011;8629;42.496;25.620;2023-11-22T06:53:48;12.43;;;10.90;;
17024;SDS011;8629;42.496;25.620;2023-11-22T06:56:14;12.87;;;11.17;;
17024;SDS011;8629;42.496;25.620;2023-11-22T06:58:42;13.30;;;11.90;;
17024;SDS011;8629;42.496;25.620;2023-11-22T07:01:09;14.47;;;11.77;;
17024;SDS011;8629;42.496;25.620;2023-11-22T07:03:36;13.80;;;11.27;;
17024;SDS011;8629;42.496;25.620;2023-11-22T07:06:06;12.30;;;10.97;;
17024;SDS011;8629;42.496;25.620;2023-11-22T07:08:34;15.30;;;10.53;;
17024;SDS011;8629;42.496;25.620;2023-11-22T07:11:01;12.27;;;11.07;;
17024;SDS011;8629;42.496;25.620;2023-11-22T07:13:29;14.00;;;12.33;;
17024;SDS011;8629;42.496;25.620;2023-11-22T07:15:58;22.87;;;16.87;;
17024;SDS011;8629;42.496;25.620;2023-11-22T07:18:25;22.97;;;19.90;;
17024;SDS011;8629;42.496;25.620;2023-11-22T07:20:52;19.37;;;14.03;;
17024;SDS011;8629;42.496;25.620;2023-11-22T07:23:20;14.57;;;12.17;;
17024;SDS011;8629;42.496;25.620;2023-11-22T07:25:50;15.13;;;13.50;;
17024;SDS011;8629;42.496;25.620;2023-11-22T07:28:17;11.67;;;10.57;;
17024;SDS011;8629;42.496;25.620;2023-11-22T07:30:44;13.07;;;11.13;;
17024;SDS011;8629;42.496;25.620;2023-11-22T07:33:15;13.77;;;11.77;;
17024;SDS011;8629;42.496;25.620;2023-11-22T07:35:42;10.73;;;9.03;;
17024;SDS011;8629;42.496;25.620;2023-11-22T07:38:08;11.33;;;10.10;;
17024;SDS011;8629;42.496;25.620;2023-11-22T07:40:36;11.87;;;10.73;;
17024;SDS011;8629;42.496;25.620;2023-11-22T07:43:04;10.63;;;9.53;;
17024;SDS011;8629;42.496;25.620;2023-11-22T07:45:32;12.00;;;10.70;;
17024;SDS011;8629;42.496;25.620;2023-11-22T07:47:59;13.00;;;11.47;;
17024;SDS011;8629;42.496;25.620;2023-11-22T07:50:29;12.60;;;11.13;;
17024;SDS011;8629;42.496;25.620;2023-11-22T07:52:56;13.37;;;11.63;;
17024;SDS011;8629;42.496;25.620;2023-11-22T07:55:23;14.40;;;12.20;;
17024;SDS011;8629;42.496;25.620;2023-11-22T07:57:50;15.33;;;13.73;;
17024;SDS011;8629;42.496;25.620;2023-11-22T08:00:18;18.57;;;13.97;;
17024;SDS011;8629;42.496;25.620;2023-11-22T08:02:45;13.50;;;12.10;;
17024;SDS011;8629;42.496;25.620;2023-11-22T08:05:12;13.13;;;10.93;;
17024;SDS011;8629;42.496;25.620;2023-11-22T08:07:41;13.37;;;12.07;;
17024;SDS011;8629;42.496;25.620;2023-11-22T08:10:11;16.47;;;12.67;;
17024;SDS011;8629;42.496;25.620;2023-11-22T08:12:44;14.83;;;12.80;;
17024;SDS011;8629;42.496;25.620;2023-11-22T08:15:12;16.03;;;13.60;;
17024;SDS011;8629;42.496;25.620;2023-11-22T08:17:40;21.47;;;19.27;;
17024;SDS011;8629;42.496;25.620;2023-11-22T08:20:08;19.43;;;16.37;;
17024;SDS011;8629;42.496;25.620;2023-11-22T08:22:40;14.43;;;13.03;;
17024;SDS011;8629;42.496;25.620;2023-11-22T08:25:10;14.97;;;13.27;;
17024;SDS011;8629;42.496;25.620;2023-11-22T08:27:38;15.50;;;13.90;;
17024;SDS011;8629;42.496;25.620;2023-11-22T08:30:07;13.07;;;11.77;;
17024;SDS011;8629;42.496;25.620;2023-11-22T08:32:40;13.43;;;12.07;;
17024;SDS011;8629;42.496;25.620;2023-11-22T08:35:08;15.40;;;11.80;;
17024;SDS011;8629;42.496;25.620;2023-11-22T08:37:35;13.83;;;12.27;;
17024;SDS011;8629;42.496;25.620;2023-11-22T08:40:06;15.17;;;13.57;;
17024;SDS011;8629;42.496;25.620;2023-11-22T08:42:36;14.03;;;12.73;;
17024;SDS011;8629;42.496;25.620;2023-11-22T08:45:03;13.23;;;11.93;;
17024;SDS011;8629;42.496;25.620;2023-11-22T08:47:30;11.47;;;10.23;;
17024;SDS011;8629;42.496;25.620;2023-11-22T08:49:57;9.90;;;8.90;;
17024;SDS011;8629;42.496;25.620;2023-11-22T08:52:24;9.20;;;8.30;;
17024;SDS011;8629;42.496;25.620;2023-11-22T08:54:51;11.63;;;9.43;;
17024;SDS011;8629;42.496;25.620;2023-11-22T08:57:19;11.00;;;9.90;;
17024;SDS011;8629;42.496;25.620;2023-11-22T08:59:46;10.33;;;9.33;;
17024;SDS011;8629;42.496;25.620;2023-11-22T09:02:13;11.20;;;10.17;;
17024;SDS011;8629;42.496;25.620;2023-11-22T09:04:40;21.67;;;16.40;;
17024;SDS011;8629;42.496;25.620;2023-11-22T09:07:08;18.70;;;15.57;;
17024;SDS011;8629;42.496;25.620;2023-11-22T09:09:35;18.97;;;15.20;;
17024;SDS011;8629;42.496;25.620;2023-11-22T09:12:03;12.17;;;10.77;;
17024;SDS011;8629;42.496;25.620;2023-11-22T09:14:41;10.83;;;9.57;;
17024;SDS011;8629;42.496;25.620;2023-11-22T09:17:08;11.73;;;10.57;;
17024;SDS011;8629;42.496;25.620;2023-11-22T09:19:35;12.70;;;11.50;;
17024;SDS011;8629;42.496;25.620;2023-11-22T09:22:02;12.07;;;10.90;;
17024;SDS011;8629;42.496;25.620;2023-11-22T09:24:32;11.37;;;10.20;;
17024;SDS011;8629;42.496;25.620;2023-11-22T09:27:02;12.77;;;11.07;;
17024;SDS011;8629;42.496;25.620;2023-11-22T09:29:30;12.47;;;10.43;;
17024;SDS011;8629;42.496;25.620;2023-11-22T09:31:59;13.07;;;11.67;;
17024;SDS011;8629;42.496;25.620;2023-11-22T09:34:27;12.70;;;11.40;;
17024;SDS011;8629;42.496;25.620;2023-11-22T09:36:54;15.30;;;13.57;;
17024;SDS011;8629;42.496;25.620;2023-11-22T09:39:21;14.73;;;13.23;;
17024;SDS011;8629;42.496;25.620;2023-11-22T09:41:50;12.87;;;11.57;;
17024;SDS011;8629;42.496;25.620;2023-11-22T09:44:18;17.67;;;15.87;;
17024;SDS011;8629;42.496;25.620;2023-11-22T09:46:47;16.00;;;14.40;;
17024;SDS011;8629;42.496;25.620;2023-11-22T09:49:19;14.17;;;12.83;;
17024;SDS011;8629;42.496;25.620;2023-11-22T09:51:48;14.53;;;13.20;;
17024;SDS011;8629;42.496;25.620;2023-11-22T09:54:17;15.33;;;13.27;;
17024;SDS011;8629;42.496;25.620;2023-11-22T09:56:45;14.30;;;12.67;;
17024;SDS011;8629;42.496;25.620;2023-11-22T09:59:15;13.63;;;12.13;;
17024;SDS011;8629;42.496;25.620;2023-11-22T10:01:44;12.33;;;11.13;;
17024;SDS011;8629;42.496;25.620;2023-11-22T10:04:11;14.03;;;12.80;;
17024;SDS011;8629;42.496;25.620;2023-11-22T10:06:39;12.93;;;11.63;;
17024;SDS011;8629;42.496;25.620;2023-11-22T10:09:11;12.47;;;10.77;;
17024;SDS011;8629;42.496;25.620;2023-11-22T10:11:39;17.90;;;15.90;;
17024;SDS011;8629;42.496;25.620;2023-11-22T10:14:08;16.37;;;14.77;;
17024;SDS011;8629;42.496;25.620;2023-11-22T10:16:35;26.10;;;23.60;;
17024;SDS011;8629;42.496;25.620;2023-11-22T10:19:03;13.47;;;12.13;;
17024;SDS011;8629;42.496;25.620;2023-11-22T10:21:31;12.40;;;11.20;;
17024;SDS011;8629;42.496;25.620;2023-11-22T10:24:01;11.50;;;10.47;;
17024;SDS011;8629;42.496;25.620;2023-11-22T10:26:30;13.10;;;11.80;;
17024;SDS011;8629;42.496;25.620;2023-11-22T10:28:57;13.53;;;12.17;;
17024;SDS011;8629;42.496;25.620;2023-11-22T10:31:25;12.30;;;11.13;;
17024;SDS011;8629;42.496;25.620;2023-11-22T10:33:53;14.80;;;11.63;;
17024;SDS011;8629;42.496;25.620;2023-11-22T10:36:21;12.20;;;11.03;;
17024;SDS011;8629;42.496;25.620;2023-11-22T10:38:48;16.50;;;13.93;;
17024;SDS011;8629;42.496;25.620;2023-11-22T10:41:19;15.43;;;13.93;;
17024;SDS011;8629;42.496;25.620;2023-11-22T10:43:46;14.37;;;12.90;;
17024;SDS011;8629;42.496;25.620;2023-11-22T10:46:13;12.37;;;11.20;;
17024;SDS011;8629;42.496;25.620;2023-11-22T10:48:40;13.07;;;11.87;;
17024;SDS011;8629;42.496;25.620;2023-11-22T10:51:06;11.13;;;10.07;;
17024;SDS011;8629;42.496;25.620;2023-11-22T10:53:42;11.43;;;10.30;;
17024;SDS011;8629;42.496;25.620;2023-11-22T10:56:14;11.10;;;10.10;;
17024;SDS011;8629;42.496;25.620;2023-11-22T10:58:47;10.30;;;9.40;;
17024;SDS011;8629;42.496;25.620;2023-11-22T11:01:15;10.43;;;9.50;;
17024;SDS011;8629;42.496;25.620;2023-11-22T11:03:45;12.13;;;11.00;;
17024;SDS011;8629;42.496;25.620;2023-11-22T11:06:14;8.40;;;7.60;;
17024;SDS011;8629;42.496;25.620;2023-11-22T11:08:42;8.80;;;8.10;;
17024;SDS011;8629;42.496;25.620;2023-11-22T11:11:10;8.20;;;7.40;;
17024;SDS011;8629;42.496;25.620;2023-11-22T11:13:37;8.83;;;7.87;;
17024;SDS011;8629;42.496;25.620;2023-11-22T11:16:10;8.53;;;7.83;;
17024;SDS011;8629;42.496;25.620;2023-11-22T11:18:37;9.13;;;8.30;;
17024;SDS011;8629;42.496;25.620;2023-11-22T11:21:07;8.87;;;8.17;;
17024;SDS011;8629;42.496;25.620;2023-11-22T11:23:37;8.73;;;8.00;;
17024;SDS011;8629;42.496;25.620;2023-11-22T11:26:09;9.00;;;7.90;;
17024;SDS011;8629;42.496;25.620;2023-11-22T11:28:42;8.93;;;8.13;;
17024;SDS011;8629;42.496;25.620;2023-11-22T11:31:10;9.17;;;8.37;;
17024;SDS011;8629;42.496;25.620;2023-11-22T11:33:52;8.10;;;7.40;;
17024;SDS011;8629;42.496;25.620;2023-11-22T11:36:21;8.30;;;7.50;;
17024;SDS011;8629;42.496;25.620;2023-11-22T11:38:50;8.63;;;7.93;;
17024;SDS011;8629;42.496;25.620;2023-11-22T11:41:18;19.80;;;15.10;;
17024;SDS011;8629;42.496;25.620;2023-11-22T11:43:45;13.53;;;11.00;;
17024;SDS011;8629;42.496;25.620;2023-11-22T11:46:14;8.97;;;8.17;;
17024;SDS011;8629;42.496;25.620;2023-11-22T11:48:42;11.37;;;10.13;;
17024;SDS011;8629;42.496;25.620;2023-11-22T11:51:09;11.80;;;9.60;;
17024;SDS011;8629;42.496;25.620;2023-11-22T11:53:39;11.17;;;9.87;;
17024;SDS011;8629;42.496;25.620;2023-11-22T11:56:06;10.23;;;9.23;;
17024;SDS011;8629;42.496;25.620;2023-11-22T11:58:34;10.60;;;9.63;;
17024;SDS011;8629;42.496;25.620;2023-11-22T12:01:01;12.30;;;11.10;;
17024;SDS011;8629;42.496;25.620;2023-11-22T12:03:29;18.37;;;14.63;;
17024;SDS011;8629;42.496;25.620;2023-11-22T12:05:56;22.37;;;16.63;;
17024;SDS011;8629;42.496;25.620;2023-11-22T12:08:23;15.60;;;13.60;;
17024;SDS011;8629;42.496;25.620;2023-11-22T12:10:50;12.03;;;10.93;;
17024;SDS011;8629;42.496;25.620;2023-11-22T12:13:18;9.57;;;8.67;;
17024;SDS011;8629;42.496;25.620;2023-11-22T12:15:44;8.70;;;7.90;;
17024;SDS011;8629;42.496;25.620;2023-11-22T12:18:11;8.67;;;7.77;;
17024;SDS011;8629;42.496;25.620;2023-11-22T12:20:44;8.40;;;7.60;;
17024;SDS011;8629;42.496;25.620;2023-11-22T12:23:21;8.47;;;7.77;;
17024;SDS011;8629;42.496;25.620;2023-11-22T12:25:48;8.47;;;7.73;;
17024;SDS011;8629;42.496;25.620;2023-11-22T12:28:16;8.07;;;7.27;;
17024;SDS011;8629;42.496;25.620;2023-11-22T12:30:44;9.57;;;8.57;;
17024;SDS011;8629;42.496;25.620;2023-11-22T12:33:11;9.63;;;8.80;;
17024;SDS011;8629;42.496;25.620;2023-11-22T12:35:42;8.63;;;7.80;;
17024;SDS011;8629;42.496;25.620;2023-11-22T12:38:10;8.83;;;8.03;;
17024;SDS011;8629;42.496;25.620;2023-11-22T12:40:37;9.87;;;8.97;;
17024;SDS011;8629;42.496;25.620;2023-11-22T12:43:04;10.47;;;9.47;;
17024;SDS011;8629;42.496;25.620;2023-11-22T12:45:31;13.43;;;10.67;;
17024;SDS011;8629;42.496;25.620;2023-11-22T12:48:11;10.07;;;9.07;;
17024;SDS011;8629;42.496;25.620;2023-11-22T12:50:47;12.63;;;11.33;;
17024;SDS011;8629;42.496;25.620;2023-11-22T12:53:14;18.13;;;15.00;;
17024;SDS011;8629;42.496;25.620;2023-11-22T12:55:42;14.03;;;11.97;;
17024;SDS011;8629;42.496;25.620;2023-11-22T12:58:10;12.90;;;11.47;;
17024;SDS011;8629;42.496;25.620;2023-11-22T13:00:37;12.77;;;11.47;;
17024;SDS011;8629;42.496;25.620;2023-11-22T13:03:04;11.97;;;10.73;;
17024;SDS011;8629;42.496;25.620;2023-11-22T13:05:35;10.63;;;9.53;;
17024;SDS011;8629;42.496;25.620;2023-11-22T13:08:04;11.63;;;9.37;;
17024;SDS011;8629;42.496;25.620;2023-11-22T13:10:31;10.50;;;9.53;;
17024;SDS011;8629;42.496;25.620;2023-11-22T13:12:58;9.63;;;8.07;;
17024;SDS011;8629;42.496;25.620;2023-11-22T13:15:26;4.93;;;4.53;;
17024;SDS011;8629;42.496;25.620;2023-11-22T13:17:52;5.17;;;4.67;;
17024;SDS011;8629;42.496;25.620;2023-11-22T13:20:21;5.50;;;4.80;;
17024;SDS011;8629;42.496;25.620;2023-11-22T13:22:48;5.70;;;5.20;;
17024;SDS011;8629;42.496;25.620;2023-11-22T13:25:17;6.73;;;6.07;;
17024;SDS011;8629;42.496;25.620;2023-11-22T13:27:44;14.73;;;13.23;;
17024;SDS011;8629;42.496;25.620;2023-11-22T13:30:12;8.57;;;6.23;;
17024;SDS011;8629;42.496;25.620;2023-11-22T13:32:39;18.57;;;12.60;;
17024;SDS011;8629;42.496;25.620;2023-11-22T13:35:08;8.67;;;7.70;;
17024;SDS011;8629;42.496;25.620;2023-11-22T13:37:39;14.70;;;11.20;;
17024;SDS011;8629;42.496;25.620;2023-11-22T13:40:09;11.10;;;9.27;;
17024;SDS011;8629;42.496;25.620;2023-11-22T13:42:44;7.20;;;6.70;;
17024;SDS011;8629;42.496;25.620;2023-11-22T13:45:13;5.83;;;4.50;;
17024;SDS011;8629;42.496;25.620;2023-11-22T13:47:42;4.70;;;4.23;;
17024;SDS011;8629;42.496;25.620;2023-11-22T13:50:11;4.80;;;4.30;;
17024;SDS011;8629;42.496;25.620;2023-11-22T13:52:40;6.90;;;5.37;;
17024;SDS011;8629;42.496;25.620;2023-11-22T13:55:07;9.27;;;8.37;;
17024;SDS011;8629;42.496;25.620;2023-11-22T13:57:36;7.07;;;6.47;;
17024;SDS011;8629;42.496;25.620;2023-11-22T14:00:05;6.30;;;5.70;;
17024;SDS011;8629;42.496;25.620;2023-11-22T14:02:37;6.87;;;6.13;;
17024;SDS011;8629;42.496;25.620;2023-11-22T14:05:04;5.80;;;5.30;;
17024;SDS011;8629;42.496;25.620;2023-11-22T14:07:34;6.50;;;5.90;;
17024;SDS011;8629;42.496;25.620;2023-11-22T14:10:01;8.03;;;7.33;;
17024;SDS011;8629;42.496;25.620;2023-11-22T14:12:29;11.60;;;10.40;;
17024;SDS011;8629;42.496;25.620;2023-11-22T14:14:56;13.43;;;12.07;;
17024;SDS011;8629;42.496;25.620;2023-11-22T14:17:25;10.23;;;9.13;;
17024;SDS011;8629;42.496;25.620;2023-11-22T14:19:52;7.33;;;6.30;;
17024;SDS011;8629;42.496;25.620;2023-11-22T14:22:19;6.00;;;5.47;;
17024;SDS011;8629;42.496;25.620;2023-11-22T14:24:47;8.73;;;6.70;;
17024;SDS011;8629;42.496;25.620;2023-11-22T14:27:14;7.47;;;6.77;;
17024;SDS011;8629;42.496;25.620;2023-11-22T14:29:40;7.13;;;6.40;;
17024;SDS011;8629;42.496;25.620;2023-11-22T14:32:07;7.23;;;6.53;;
17024;SDS011;8629;42.496;25.620;2023-11-22T14:34:36;12.20;;;8.83;;